Time;durP1;ratioP1;P1;durP2;ratioP2;P2;SDS_P1;SDS_P2;PMS_P1;PMS_P2;Temp;Humidity;BMP_temperature;BMP_pressure;BME280_temperature;BME280_humidity;BME280_pressure;Samples;Min_cycle;Max_cycle;Signal;HPM_P1;HPM_P2
2020/12/10 00:01:18;;;;;;;93.40;43.25;;;1.70;99.90;;;;;;5034563;28;20213;-78
2020/12/10 00:03:46;;;;;;;88.05;41.28;;;1.70;99.90;;;;;;5034693;28;20374;-78
2020/12/10 00:06:13;;;;;;;95.45;44.03;;;1.60;99.90;;;;;;5033780;28;20673;-78
2020/12/10 00:08:39;;;;;;;113.35;44.33;;;1.60;99.90;;;;;;5034169;28;20210;-77
2020/12/10 00:11:05;;;;;;;88.53;41.47;;;1.60;99.90;;;;;;5034790;28;20199;-78
2020/12/10 00:13:31;;;;;;;90.97;42.13;;;1.60;99.90;;;;;;5033956;28;20219;-77
2020/12/10 00:15:58;;;;;;;91.38;41.50;;;1.60;99.90;;;;;;5033838;28;20224;-77
2020/12/10 00:18:25;;;;;;;96.85;42.70;;;1.50;99.90;;;;;;5033926;28;20214;-76
2020/12/10 00:20:51;;;;;;;87.88;41.85;;;1.50;99.90;;;;;;5033990;28;20687;-77
2020/12/10 00:23:17;;;;;;;97.32;43.80;;;1.50;99.90;;;;;;5033926;28;20210;-76
2020/12/10 00:25:44;;;;;;;93.93;43.60;;;1.50;99.90;;;;;;5036616;28;20239;-77
2020/12/10 00:28:10;;;;;;;101.82;45.92;;;1.50;99.90;;;;;;5037899;28;20192;-78
2020/12/10 00:30:36;;;;;;;94.03;42.60;;;1.40;99.90;;;;;;5037957;28;20215;-77
2020/12/10 00:33:03;;;;;;;86.45;41.83;;;1.30;99.90;;;;;;5039013;28;20630;-79
2020/12/10 00:35:30;;;;;;;95.28;45.47;;;1.40;99.90;;;;;;5038439;28;20196;-79
2020/12/10 00:37:56;;;;;;;101.03;45.67;;;1.40;99.90;;;;;;5038447;28;20207;-79
2020/12/10 00:40:23;;;;;;;91.85;43.05;;;1.40;99.90;;;;;;5038465;28;20211;-78
2020/12/10 00:42:49;;;;;;;99.47;43.38;;;1.40;99.90;;;;;;5038731;28;20586;-78
2020/12/10 00:45:15;;;;;;;105.50;48.70;;;1.30;99.90;;;;;;5038399;28;20210;-78
2020/12/10 00:47:42;;;;;;;92.47;43.88;;;1.30;99.90;;;;;;5038104;28;20231;-78
2020/12/10 00:50:08;;;;;;;90.75;44.05;;;1.20;99.90;;;;;;5038621;28;20554;-78
2020/12/10 00:52:36;;;;;;;95.20;43.33;;;1.20;99.90;;;;;;5037492;28;20215;-78
2020/12/10 00:55:02;;;;;;;106.50;45.03;;;1.30;99.90;;;;;;5038283;28;20203;-77
2020/12/10 00:57:28;;;;;;;107.53;46.50;;;1.20;99.90;;;;;;5021847;28;20223;-78
2020/12/10 00:59:55;;;;;;;99.07;46.15;;;1.30;99.90;;;;;;5040964;28;20209;-78
2020/12/10 01:02:24;;;;;;;103.38;45.42;;;1.30;99.90;;;;;;5040762;28;20204;-79
2020/12/10 01:04:50;;;;;;;111.22;47.08;;;1.30;99.90;;;;;;5040884;28;20203;-78
2020/12/10 01:07:17;;;;;;;113.30;46.17;;;1.40;99.90;;;;;;5040663;28;20347;-79
2020/12/10 01:09:44;;;;;;;109.13;43.13;;;1.30;99.90;;;;;;5040810;28;20204;-77
2020/12/10 01:12:10;;;;;;;102.38;44.65;;;1.40;99.90;;;;;;5040082;28;20200;-78
2020/12/10 01:14:36;;;;;;;106.50;45.47;;;1.30;99.90;;;;;;5041503;28;20203;-78
2020/12/10 01:17:03;;;;;;;103.80;47.80;;;1.30;99.90;;;;;;5040515;28;20223;-78
2020/12/10 01:19:30;;;;;;;105.15;46.47;;;1.30;99.90;;;;;;5039013;28;20203;-78
2020/12/10 01:21:56;;;;;;;110.82;46.75;;;1.30;99.90;;;;;;5037818;28;20643;-79
2020/12/10 01:24:22;;;;;;;101.60;43.22;;;1.30;99.90;;;;;;5039803;28;20206;-78
2020/12/10 01:26:50;;;;;;;117.57;47.50;;;1.30;99.90;;;;;;5038291;28;20235;-79
2020/12/10 01:29:16;;;;;;;100.15;48.85;;;1.30;99.90;;;;;;5037730;28;20199;-79
2020/12/10 01:31:42;;;;;;;99.53;43.92;;;1.30;99.90;;;;;;5037975;28;20573;-79
2020/12/10 01:34:09;;;;;;;110.78;45.58;;;1.30;99.90;;;;;;5038025;28;20208;-79
2020/12/10 01:36:35;;;;;;;116.95;46.10;;;1.30;99.90;;;;;;5036284;28;20223;-79
2020/12/10 01:39:02;;;;;;;119.72;46.58;;;1.20;99.90;;;;;;5053487;22;20612;-82
2020/12/10 01:41:30;;;;;;;106.05;44.72;;;1.20;99.90;;;;;;5043046;28;20235;-81
2020/12/10 01:44:02;;;;;;;116.32;47.85;;;1.20;99.90;;;;;;5042072;28;20638;-81
2020/12/10 01:46:28;;;;;;;108.30;45.28;;;1.20;99.90;;;;;;5040770;28;20214;-80
2020/12/10 01:48:54;;;;;;;119.43;48.75;;;1.20;99.90;;;;;;5041660;28;20223;-81
2020/12/10 01:51:21;;;;;;;100.45;44.10;;;1.20;99.90;;;;;;5041286;28;20204;-82
2020/12/10 01:53:47;;;;;;;104.30;46.05;;;1.20;99.90;;;;;;5041813;28;20204;-81
2020/12/10 01:56:15;;;;;;;97.65;44.28;;;1.20;99.90;;;;;;5042641;28;20290;-81
2020/12/10 01:58:42;;;;;;;116.40;46.90;;;1.30;99.90;;;;;;5041017;28;20299;-81
2020/12/10 02:01:09;;;;;;;116.40;47.55;;;1.20;99.90;;;;;;5041765;28;20238;-82
2020/12/10 02:03:36;;;;;;;108.88;45.95;;;1.10;99.90;;;;;;5040818;28;20230;-81
2020/12/10 02:06:02;;;;;;;98.88;44.08;;;1.10;99.90;;;;;;5038301;28;20208;-82
2020/12/10 02:08:28;;;;;;;113.15;45.45;;;1.20;99.90;;;;;;5038515;28;20220;-81
2020/12/10 02:10:55;;;;;;;103.25;44.17;;;1.20;99.90;;;;;;5038013;28;20206;-80
2020/12/10 02:13:21;;;;;;;106.93;44.45;;;1.20;99.90;;;;;;5038872;28;20210;-81
2020/12/10 02:15:48;;;;;;;110.55;46.28;;;1.10;99.90;;;;;;5039513;28;20206;-82
2020/12/10 02:18:16;;;;;;;110.10;45.22;;;1.10;99.90;;;;;;5040901;28;20230;-82
2020/12/10 02:20:43;;;;;;;94.07;42.50;;;1.10;99.90;;;;;;5041212;28;20672;-81
2020/12/10 02:23:11;;;;;;;104.40;43.58;;;1.10;99.90;;;;;;5042044;28;20208;-81
2020/12/10 02:25:38;;;;;;;115.85;42.92;;;1.10;99.90;;;;;;5042935;28;20211;-80
2020/12/10 02:28:06;;;;;;;118.32;45.35;;;1.20;99.90;;;;;;5039356;28;20227;-81
2020/12/10 02:30:33;;;;;;;125.13;45.80;;;1.10;99.90;;;;;;5038830;28;20294;-81
2020/12/10 02:33:02;;;;;;;112.68;49.53;;;0.90;99.90;;;;;;5038322;28;20291;-81
2020/12/10 02:35:29;;;;;;;116.40;45.10;;;0.90;99.90;;;;;;5038300;28;20214;-81
2020/12/10 02:37:55;;;;;;;122.38;47.67;;;0.90;99.90;;;;;;5038596;28;20200;-82
2020/12/10 02:40:24;;;;;;;118.75;46.67;;;0.90;99.90;;;;;;5043551;28;20196;-80
2020/12/10 02:42:50;;;;;;;111.70;45.30;;;1.00;99.90;;;;;;5044964;28;20744;-80
2020/12/10 02:45:17;;;;;;;111.28;48.67;;;0.90;99.90;;;;;;5046129;28;20199;-81
2020/12/10 02:47:44;;;;;;;116.07;45.65;;;0.90;99.90;;;;;;5047169;28;20228;-80
2020/12/10 02:50:10;;;;;;;111.10;47.00;;;0.90;99.90;;;;;;5044239;28;20617;-80
2020/12/10 02:52:37;;;;;;;120.47;46.03;;;0.90;99.90;;;;;;5040480;28;20199;-80
2020/12/10 02:55:04;;;;;;;113.70;47.92;;;0.80;99.90;;;;;;5039622;28;20203;-80
2020/12/10 02:57:31;;;;;;;136.73;51.00;;;0.90;99.90;;;;;;5040074;28;20210;-80
2020/12/10 02:59:57;;;;;;;126.07;49.50;;;0.90;99.90;;;;;;5038905;28;20773;-80
2020/12/10 03:02:24;;;;;;;128.32;49.10;;;0.80;99.90;;;;;;5046285;28;20236;-81
2020/12/10 03:04:50;;;;;;;118.18;47.42;;;0.70;99.90;;;;;;5049110;28;20266;-80
2020/12/10 03:07:16;;;;;;;122.53;47.38;;;0.80;99.90;;;;;;5049284;28;20231;-79
2020/12/10 03:09:44;;;;;;;138.00;49.40;;;0.90;99.90;;;;;;5050343;28;20226;-79
2020/12/10 03:12:10;;;;;;;129.25;49.10;;;0.80;99.90;;;;;;5050243;28;20223;-81
2020/12/10 03:14:37;;;;;;;115.63;46.85;;;0.90;99.90;;;;;;5053846;28;20188;-79
2020/12/10 03:17:04;;;;;;;126.80;48.72;;;0.90;99.90;;;;;;5052948;28;20224;-81
2020/12/10 03:19:30;;;;;;;121.57;46.08;;;0.90;99.90;;;;;;5048674;28;20231;-80
2020/12/10 03:21:57;;;;;;;119.30;49.08;;;1.00;99.90;;;;;;5050862;28;20207;-81
2020/12/10 03:24:23;;;;;;;110.18;42.22;;;0.90;99.90;;;;;;5053682;28;20203;-81
2020/12/10 03:26:50;;;;;;;105.90;45.60;;;0.90;99.90;;;;;;5050362;28;20226;-81
2020/12/10 03:29:16;;;;;;;100.40;42.65;;;0.90;99.90;;;;;;5052511;28;20224;-81
2020/12/10 03:31:43;;;;;;;114.88;45.70;;;0.90;99.90;;;;;;5052430;28;20204;-81
2020/12/10 03:34:11;;;;;;;109.00;45.75;;;0.90;99.90;;;;;;5052954;28;20271;-79
2020/12/10 03:36:48;;;;;;;102.97;43.42;;;1.00;99.90;;;;;;5053934;28;20202;-81
2020/12/10 03:39:14;;;;;;;115.68;46.05;;;0.90;99.90;;;;;;5048260;28;20235;-80
2020/12/10 03:41:41;;;;;;;114.75;50.17;;;0.90;99.90;;;;;;5055275;28;20199;-82
2020/12/10 03:44:07;;;;;;;115.05;45.35;;;1.00;99.90;;;;;;5050888;28;20204;-82
2020/12/10 03:46:34;;;;;;;110.25;46.47;;;1.00;99.90;;;;;;5049340;28;20223;-80
2020/12/10 03:49:01;;;;;;;107.00;44.72;;;1.00;99.90;;;;;;5048798;28;20220;-81
2020/12/10 03:51:27;;;;;;;102.38;44.20;;;1.10;99.90;;;;;;5045959;28;20207;-81
2020/12/10 03:53:54;;;;;;;100.18;41.80;;;1.00;99.90;;;;;;5049376;28;20184;-81
2020/12/10 03:56:20;;;;;;;114.07;44.60;;;0.90;99.90;;;;;;5052252;28;20210;-80
2020/12/10 03:58:46;;;;;;;106.75;42.63;;;1.00;99.90;;;;;;5051894;28;20774;-80
2020/12/10 04:01:13;;;;;;;108.28;43.28;;;1.10;99.90;;;;;;5050544;28;20741;-82
2020/12/10 04:03:39;;;;;;;111.05;44.00;;;1.10;99.90;;;;;;5047106;28;20250;-80
2020/12/10 04:06:06;;;;;;;111.63;44.55;;;1.10;99.90;;;;;;5047954;28;20203;-80
2020/12/10 04:08:33;;;;;;;105.57;45.72;;;1.00;99.90;;;;;;5048553;28;20311;-81
2020/12/10 04:10:59;;;;;;;94.18;42.88;;;1.00;99.90;;;;;;5047624;28;20302;-81
2020/12/10 04:13:26;;;;;;;98.93;41.92;;;1.10;99.90;;;;;;5047442;28;20206;-82
2020/12/10 04:15:52;;;;;;;99.38;41.88;;;1.00;99.90;;;;;;5047959;28;20207;-81
2020/12/10 04:18:19;;;;;;;105.03;40.42;;;0.90;99.90;;;;;;5044339;28;20647;-82
2020/12/10 04:20:46;;;;;;;123.93;44.80;;;1.00;99.90;;;;;;5045040;28;20630;-82
2020/12/10 04:23:13;;;;;;;109.63;45.13;;;1.00;99.90;;;;;;5044889;28;20234;-81
2020/12/10 04:25:39;;;;;;;115.50;44.15;;;1.00;99.90;;;;;;5044438;28;20210;-82
2020/12/10 04:28:05;;;;;;;112.95;44.83;;;0.90;99.90;;;;;;5044467;28;20675;-81
2020/12/10 04:30:32;;;;;;;120.47;46.15;;;1.00;99.90;;;;;;5044829;28;20211;-80
2020/12/10 04:32:58;;;;;;;130.32;47.15;;;1.00;99.90;;;;;;5045035;28;20238;-81
2020/12/10 04:35:24;;;;;;;120.68;48.20;;;1.00;99.90;;;;;;5045430;28;20207;-82
2020/12/10 04:37:51;;;;;;;129.48;47.28;;;1.00;99.90;;;;;;5044136;28;20227;-80
2020/12/10 04:40:18;;;;;;;114.85;44.33;;;1.10;99.90;;;;;;5045616;28;20214;-81
2020/12/10 04:42:46;;;;;;;98.65;43.78;;;1.00;99.90;;;;;;5045238;28;20200;-82
2020/12/10 04:45:13;;;;;;;96.60;40.83;;;1.10;99.90;;;;;;5045448;28;20583;-81
2020/12/10 04:47:41;;;;;;;111.45;44.17;;;1.10;99.90;;;;;;5043152;28;20255;-82
2020/12/10 04:50:16;;;;;;;108.90;45.47;;;1.00;99.90;;;;;;5043741;28;20629;-81
2020/12/10 04:52:43;;;;;;;123.85;46.60;;;0.90;99.90;;;;;;5043872;28;20202;-82
2020/12/10 04:55:10;;;;;;;106.63;45.45;;;0.90;99.90;;;;;;5043698;28;20286;-81
2020/12/10 04:57:40;;;;;;;104.65;43.10;;;0.90;99.90;;;;;;5042187;28;20551;-81
2020/12/10 05:00:07;;;;;;;128.13;44.97;;;0.80;99.90;;;;;;5043423;28;20223;-80
2020/12/10 05:02:33;;;;;;;116.55;46.03;;;0.70;99.90;;;;;;5042118;28;20281;-81
2020/12/10 05:05:00;;;;;;;109.82;45.47;;;0.70;99.90;;;;;;5043236;28;20263;-81
2020/12/10 05:07:38;;;;;;;107.45;46.00;;;0.80;99.90;;;;;;5042661;28;20220;-82
2020/12/10 05:10:05;;;;;;;113.22;46.38;;;0.80;99.90;;;;;;5041140;28;20227;-80
2020/12/10 05:12:31;;;;;;;112.15;42.72;;;0.80;99.90;;;;;;5039650;28;20270;-80
2020/12/10 05:14:59;;;;;;;108.28;44.65;;;0.80;99.90;;;;;;5040687;28;20272;-80
2020/12/10 05:17:30;;;;;;;111.28;42.30;;;0.80;99.90;;;;;;5040532;28;20294;-81
2020/12/10 05:19:58;;;;;;;109.75;45.75;;;0.80;99.90;;;;;;5041699;28;20310;-80
2020/12/10 05:22:24;;;;;;;106.22;43.63;;;0.80;99.90;;;;;;5041252;28;20238;-81
2020/12/10 05:24:59;;;;;;;109.15;41.17;;;0.80;99.90;;;;;;5040036;28;20295;-81
2020/12/10 05:27:26;;;;;;;99.75;42.78;;;0.80;99.90;;;;;;5040880;28;20231;-81
2020/12/10 05:29:53;;;;;;;105.10;39.60;;;0.80;99.90;;;;;;5040661;28;20230;-81
2020/12/10 05:32:40;;;;;;;107.63;42.55;;;0.80;99.90;;;;;;5041542;28;20212;-81
2020/12/10 05:35:18;;;;;;;102.72;42.60;;;0.80;99.90;;;;;;5041304;28;20274;-81
2020/12/10 05:37:44;;;;;;;102.78;43.53;;;0.80;99.90;;;;;;5041482;28;20853;-82
2020/12/10 05:40:11;;;;;;;111.65;43.72;;;0.80;99.90;;;;;;5041599;28;20626;-81
2020/12/10 05:42:38;;;;;;;118.43;47.80;;;0.70;99.90;;;;;;5039928;28;20465;-81
2020/12/10 05:45:11;;;;;;;91.03;42.45;;;0.70;99.90;;;;;;5040483;28;20199;-81
2020/12/10 05:47:45;;;;;;;96.82;41.58;;;0.70;99.90;;;;;;5040927;28;20644;-80
2020/12/10 05:50:13;;;;;;;129.70;46.65;;;0.80;99.90;;;;;;5040557;28;20627;-80
2020/12/10 05:52:44;;;;;;;120.95;43.38;;;0.70;99.90;;;;;;5040374;28;20231;-81
2020/12/10 05:55:11;;;;;;;108.97;44.92;;;0.70;99.90;;;;;;5041229;28;20194;-81
2020/12/10 05:57:42;;;;;;;133.88;42.47;;;0.70;99.90;;;;;;5041960;28;20286;-81
2020/12/10 06:00:08;;;;;;;144.43;51.03;;;0.80;99.90;;;;;;5046956;28;20438;-81
2020/12/10 06:02:36;;;;;;;115.05;46.50;;;0.80;99.90;;;;;;5052035;28;20203;-81
2020/12/10 06:05:03;;;;;;;112.68;43.45;;;0.90;99.90;;;;;;5053020;28;20298;-81
2020/12/10 06:07:30;;;;;;;101.88;41.15;;;1.00;99.90;;;;;;5051596;28;20488;-80
2020/12/10 06:09:59;;;;;;;105.10;39.83;;;0.80;99.90;;;;;;5051350;28;20251;-79
2020/12/10 06:12:25;;;;;;;100.35;40.13;;;0.80;99.90;;;;;;5051459;28;20253;-80
2020/12/10 06:14:53;;;;;;;88.88;39.45;;;0.60;99.90;;;;;;5046542;28;20278;-81
2020/12/10 06:17:20;;;;;;;96.63;43.72;;;0.60;99.90;;;;;;5043270;28;20437;-81
2020/12/10 06:19:47;;;;;;;91.28;41.58;;;0.70;99.90;;;;;;5043190;28;20441;-81
2020/12/10 06:22:31;;;;;;;101.32;42.95;;;0.70;99.90;;;;;;5046723;28;20194;-83
2020/12/10 06:24:58;;;;;;;86.03;39.63;;;0.80;99.90;;;;;;5053342;28;20188;-80
2020/12/10 06:27:30;;;;;;;99.33;43.23;;;0.80;99.90;;;;;;5046918;28;20544;-81
2020/12/10 06:30:13;;;;;;;91.03;39.40;;;0.70;99.90;;;;;;5045363;28;20474;-80
2020/12/10 06:32:41;;;;;;;94.05;36.50;;;0.60;99.90;;;;;;5055406;28;20199;-80
2020/12/10 06:35:25;;;;;;;91.35;38.03;;;0.60;99.90;;;;;;5056086;28;20246;-81
2020/12/10 06:37:53;;;;;;;90.20;36.88;;;0.70;99.90;;;;;;5055768;28;20644;-81
2020/12/10 06:40:32;;;;;;;103.32;39.78;;;0.60;99.90;;;;;;5056653;28;20180;-80
2020/12/10 06:42:58;;;;;;;98.72;39.45;;;0.60;99.90;;;;;;5057176;28;20251;-79
2020/12/10 06:45:26;;;;;;;98.63;37.65;;;0.50;99.90;;;;;;5056879;28;20211;-79
2020/12/10 06:47:53;;;;;;;88.10;35.38;;;0.70;99.90;;;;;;5056036;28;20243;-79
2020/12/10 06:50:27;;;;;;;88.47;36.70;;;0.60;99.90;;;;;;5054559;28;20176;-80
2020/12/10 06:53:18;;;;;;;90.75;35.67;;;0.60;99.90;;;;;;5054590;28;20214;-82
2020/12/10 06:56:05;;;;;;;87.03;36.30;;;0.50;99.90;;;;;;5053977;28;20215;-81
2020/12/10 06:58:54;;;;;;;83.90;34.90;;;0.60;99.90;;;;;;5055311;28;20219;-80
2020/12/10 07:01:21;;;;;;;77.75;35.50;;;0.60;99.90;;;;;;5044109;28;20192;-80
2020/12/10 07:03:49;;;;;;;98.50;38.83;;;0.60;99.90;;;;;;5043536;28;20283;-80
2020/12/10 07:06:18;;;;;;;88.28;33.35;;;0.70;99.90;;;;;;5043489;28;20659;-81
2020/12/10 07:09:00;;;;;;;92.05;38.22;;;0.70;99.90;;;;;;5044241;28;20238;-82
2020/12/10 07:11:31;;;;;;;85.28;38.03;;;0.80;99.90;;;;;;5044352;28;20203;-80
2020/12/10 07:13:57;;;;;;;85.38;36.53;;;0.80;99.90;;;;;;5044750;28;20194;-81
2020/12/10 07:16:30;;;;;;;86.55;35.05;;;0.80;99.90;;;;;;5043370;28;20188;-82
2020/12/10 07:18:56;;;;;;;85.30;36.88;;;0.80;99.90;;;;;;5042894;28;20591;-80
2020/12/10 07:21:23;;;;;;;96.63;37.60;;;0.90;99.90;;;;;;5043144;28;20271;-81
2020/12/10 07:23:49;;;;;;;82.95;36.05;;;0.80;99.90;;;;;;5048618;28;20191;-80
2020/12/10 07:26:17;;;;;;;95.75;39.00;;;0.80;99.90;;;;;;5052202;28;20347;-79
2020/12/10 07:28:45;;;;;;;95.63;38.80;;;0.80;99.90;;;;;;5054116;28;20259;-80
2020/12/10 07:31:16;;;;;;;83.80;37.70;;;0.80;99.90;;;;;;5052200;28;20195;-79
2020/12/10 07:33:43;;;;;;;85.38;37.97;;;0.80;99.90;;;;;;5054557;28;20227;-80
2020/12/10 07:36:09;;;;;;;94.00;39.42;;;0.80;99.90;;;;;;5053558;28;20188;-80
2020/12/10 07:38:36;;;;;;;96.25;39.20;;;0.80;99.90;;;;;;5062984;22;20328;-76
2020/12/10 07:41:03;;;;;;;97.43;37.80;;;0.70;99.90;;;;;;5036478;28;20613;-76
2020/12/10 07:43:31;;;;;;;92.20;38.40;;;0.70;99.90;;;;;;5035605;28;20274;-77
2020/12/10 07:45:58;;;;;;;94.13;39.58;;;0.80;99.90;;;;;;5035299;28;20279;-78
2020/12/10 07:48:24;;;;;;;96.78;36.67;;;0.80;99.90;;;;;;5034865;28;20581;-77
2020/12/10 07:50:50;;;;;;;89.10;36.60;;;0.90;99.90;;;;;;5035088;28;20303;-78
2020/12/10 07:53:17;;;;;;;83.78;35.55;;;0.80;99.90;;;;;;5035590;28;20288;-77
2020/12/10 07:55:52;;;;;;;85.43;36.55;;;0.80;99.90;;;;;;5034238;28;20190;-77
2020/12/10 07:58:23;;;;;;;92.25;36.97;;;0.80;99.90;;;;;;5034566;28;20188;-77
2020/12/10 08:00:50;;;;;;;85.03;35.17;;;0.80;99.90;;;;;;5034402;28;20246;-77
2020/12/10 08:03:27;;;;;;;89.90;34.72;;;0.80;99.90;;;;;;5034905;28;20641;-77
2020/12/10 08:06:00;;;;;;;73.95;33.92;;;0.80;99.90;;;;;;5035479;28;20211;-77
2020/12/10 08:08:36;;;;;;;76.57;32.55;;;1.00;99.90;;;;;;5034868;28;20223;-77
2020/12/10 08:11:10;;;;;;;77.15;34.72;;;0.90;99.90;;;;;;5033663;28;20207;-77
2020/12/10 08:13:37;;;;;;;72.57;32.70;;;0.90;99.90;;;;;;5033795;28;20199;-77
2020/12/10 08:16:08;;;;;;;72.38;32.78;;;0.80;99.90;;;;;;5033856;28;20585;-77
2020/12/10 08:18:34;;;;;;;86.22;37.08;;;0.70;99.90;;;;;;5033098;28;20734;-77
2020/12/10 08:21:05;;;;;;;95.78;33.13;;;0.80;99.90;;;;;;5033214;28;20572;-77
2020/12/10 08:23:44;;;;;;;89.65;37.97;;;0.90;99.90;;;;;;5033280;28;20196;-77
2020/12/10 08:26:12;;;;;;;81.13;33.97;;;0.90;99.90;;;;;;5033768;28;20206;-77
2020/12/10 08:28:38;;;;;;;81.03;36.72;;;0.80;99.90;;;;;;5032921;28;20241;-77
2020/12/10 08:31:05;;;;;;;79.28;33.22;;;0.80;99.90;;;;;;5033557;28;20192;-77
2020/12/10 08:33:36;;;;;;;81.30;34.63;;;0.70;99.90;;;;;;5033780;28;20199;-77
2020/12/10 08:36:04;;;;;;;78.35;37.92;;;0.80;99.90;;;;;;5034457;28;20188;-77
2020/12/10 08:38:31;;;;;;;83.03;36.78;;;0.80;99.90;;;;;;5033239;28;20289;-77
2020/12/10 08:40:59;;;;;;;76.32;35.38;;;0.80;99.90;;;;;;5033199;28;20275;-77
2020/12/10 08:43:26;;;;;;;78.18;31.88;;;0.90;99.90;;;;;;5032889;28;20273;-77
2020/12/10 08:45:52;;;;;;;72.43;32.05;;;0.90;99.90;;;;;;5033098;28;20204;-77
2020/12/10 08:48:26;;;;;;;74.35;34.45;;;0.80;99.90;;;;;;5036431;28;20333;-77
2020/12/10 08:50:54;;;;;;;75.30;33.63;;;0.80;99.90;;;;;;5037717;28;20196;-77
2020/12/10 08:53:22;;;;;;;84.43;34.78;;;0.80;99.90;;;;;;5037028;28;20615;-77
2020/12/10 08:55:51;;;;;;;83.85;34.00;;;0.70;99.90;;;;;;5038171;28;20553;-77
2020/12/10 08:58:19;;;;;;;75.78;33.38;;;0.60;99.90;;;;;;5037137;28;20234;-77
2020/12/10 09:00:47;;;;;;;94.63;38.20;;;0.60;99.90;;;;;;5037388;28;20295;-77
2020/12/10 09:03:13;;;;;;;87.45;35.97;;;0.60;99.90;;;;;;5036409;28;20215;-77
2020/12/10 09:05:39;;;;;;;88.18;36.75;;;0.70;99.90;;;;;;5036526;28;20212;-77
2020/12/10 09:08:07;;;;;;;99.05;38.50;;;0.80;99.90;;;;;;5036396;28;20688;-77
2020/12/10 09:10:33;;;;;;;81.05;36.38;;;0.80;99.90;;;;;;5035851;28;20231;-78
2020/12/10 09:13:00;;;;;;;97.78;36.72;;;0.70;99.90;;;;;;5035926;28;20253;-77
2020/12/10 09:15:26;;;;;;;107.38;38.70;;;0.80;99.90;;;;;;5035685;28;20207;-78
2020/12/10 09:17:53;;;;;;;133.68;54.65;;;0.80;99.90;;;;;;5036353;28;20290;-77
2020/12/10 09:20:20;;;;;;;142.13;63.00;;;0.80;99.90;;;;;;5036350;28;20592;-77
2020/12/10 09:22:46;;;;;;;178.68;79.53;;;0.80;99.90;;;;;;5036619;28;20283;-77
2020/12/10 09:25:13;;;;;;;354.20;180.45;;;0.80;99.90;;;;;;5036725;28;20211;-77
2020/12/10 09:27:40;;;;;;;227.23;98.95;;;0.80;99.90;;;;;;5037091;28;20223;-77
2020/12/10 09:30:09;;;;;;;219.70;104.82;;;0.90;99.90;;;;;;5035715;28;20719;-77
2020/12/10 09:32:37;;;;;;;162.40;73.90;;;0.80;99.90;;;;;;5036689;28;20210;-77
2020/12/10 09:35:06;;;;;;;126.65;52.70;;;0.80;99.90;;;;;;5035851;28;20290;-77
2020/12/10 09:37:34;;;;;;;133.85;59.20;;;0.70;99.90;;;;;;5036099;28;20206;-76
2020/12/10 09:40:00;;;;;;;230.73;107.30;;;0.70;99.90;;;;;;5037738;28;20258;-77
2020/12/10 09:42:28;;;;;;;199.30;103.78;;;0.80;99.90;;;;;;5034738;28;20223;-76
2020/12/10 09:44:54;;;;;;;131.57;64.07;;;0.90;99.90;;;;;;5034436;28;20214;-78
2020/12/10 09:47:21;;;;;;;109.13;48.47;;;0.90;99.90;;;;;;5033815;28;20254;-76
2020/12/10 09:49:47;;;;;;;126.57;50.40;;;0.90;99.90;;;;;;5033969;28;20310;-76
2020/12/10 09:52:14;;;;;;;141.80;52.47;;;0.80;99.90;;;;;;5033281;28;20203;-77
2020/12/10 09:57:29;;;;;;;107.78;42.00;;;0.80;99.90;;;;;;5032091;28;20196;-77
2020/12/10 09:59:57;;;;;;;105.57;40.17;;;0.70;99.90;;;;;;5035789;28;20314;-77
2020/12/10 10:02:24;;;;;;;106.70;41.90;;;0.70;99.90;;;;;;5036383;28;20204;-77
2020/12/10 10:04:50;;;;;;;81.00;37.08;;;0.70;99.90;;;;;;5037477;28;20204;-77
2020/12/10 10:07:17;;;;;;;108.60;40.65;;;0.70;99.90;;;;;;5036292;28;20219;-77
2020/12/10 10:09:43;;;;;;;104.63;39.30;;;0.70;99.90;;;;;;5035951;28;20226;-77
2020/12/10 10:12:10;;;;;;;108.40;43.25;;;0.70;99.90;;;;;;5036138;28;20234;-77
2020/12/10 10:14:37;;;;;;;96.95;42.15;;;0.70;99.90;;;;;;5035120;28;20691;-77
2020/12/10 10:17:08;;;;;;;90.32;40.70;;;0.80;99.90;;;;;;5034965;28;20206;-77
2020/12/10 10:19:35;;;;;;;105.95;42.05;;;0.80;99.90;;;;;;5034950;28;20223;-78
2020/12/10 10:22:01;;;;;;;114.95;50.05;;;0.80;99.90;;;;;;5035164;28;20214;-77
2020/12/10 10:24:29;;;;;;;103.32;48.60;;;0.80;99.90;;;;;;5035206;28;20204;-77
2020/12/10 10:26:55;;;;;;;104.43;43.72;;;0.70;99.90;;;;;;5035655;28;20203;-77
2020/12/10 10:29:21;;;;;;;173.25;95.80;;;0.80;99.90;;;;;;5035624;28;20311;-76
2020/12/10 10:31:48;;;;;;;125.03;52.85;;;0.90;99.90;;;;;;5035387;28;20200;-77
2020/12/10 10:34:16;;;;;;;102.00;42.53;;;0.80;99.90;;;;;;5036002;28;20214;-77
2020/12/10 10:36:42;;;;;;;94.22;35.70;;;0.80;99.90;;;;;;5036743;28;20601;-77
2020/12/10 10:39:09;;;;;;;102.00;40.15;;;0.60;99.90;;;;;;5036272;28;20270;-77
2020/12/10 10:41:42;;;;;;;99.35;36.45;;;0.80;99.90;;;;;;5034989;28;20204;-77
2020/12/10 10:44:09;;;;;;;85.40;34.72;;;0.70;99.90;;;;;;5034873;28;20290;-77
2020/12/10 10:46:35;;;;;;;86.70;35.47;;;0.80;99.90;;;;;;5034626;28;20208;-77
2020/12/10 10:49:02;;;;;;;92.65;35.63;;;0.90;99.90;;;;;;5034670;28;20234;-77
2020/12/10 10:51:29;;;;;;;107.20;44.30;;;0.90;99.90;;;;;;5034668;28;20207;-77
2020/12/10 10:53:55;;;;;;;90.40;37.55;;;0.90;99.90;;;;;;5034521;28;20295;-77
2020/12/10 10:56:22;;;;;;;98.38;41.53;;;0.80;99.90;;;;;;5033972;28;20738;-77
2020/12/10 10:58:48;;;;;;;88.82;34.22;;;0.90;99.90;;;;;;5034945;28;20226;-77
2020/12/10 11:01:15;;;;;;;97.20;37.08;;;0.90;99.90;;;;;;5034863;28;20239;-78
2020/12/10 11:03:42;;;;;;;90.63;35.92;;;0.90;99.90;;;;;;5035036;28;20236;-78
2020/12/10 11:06:08;;;;;;;95.25;36.63;;;0.80;99.90;;;;;;5034435;28;20665;-77
2020/12/10 11:08:36;;;;;;;92.72;38.72;;;0.80;99.90;;;;;;5033771;28;20228;-77
2020/12/10 11:11:02;;;;;;;102.45;43.78;;;0.80;99.90;;;;;;5034447;28;20200;-77
2020/12/10 11:13:28;;;;;;;87.72;39.95;;;0.80;99.90;;;;;;5034546;28;20199;-77
2020/12/10 11:15:55;;;;;;;106.15;44.60;;;0.80;99.90;;;;;;5035413;28;20742;-77
2020/12/10 11:18:21;;;;;;;84.95;38.22;;;0.90;99.90;;;;;;5035294;28;20204;-77
2020/12/10 11:20:48;;;;;;;98.75;39.60;;;0.90;99.90;;;;;;5034934;28;20214;-77
2020/12/10 11:23:14;;;;;;;98.57;39.33;;;0.90;99.90;;;;;;5034290;28;20207;-77
2020/12/10 11:25:42;;;;;;;100.45;39.25;;;0.80;99.90;;;;;;5034666;28;20214;-77
2020/12/10 11:28:08;;;;;;;111.10;40.83;;;0.80;99.90;;;;;;5034695;28;20223;-77
2020/12/10 11:30:34;;;;;;;104.85;39.40;;;0.80;99.90;;;;;;5034251;28;20220;-77
2020/12/10 11:33:01;;;;;;;116.30;41.55;;;0.80;99.90;;;;;;5034404;28;20294;-77
2020/12/10 11:35:27;;;;;;;101.68;39.53;;;0.80;99.90;;;;;;5034592;28;20214;-77
2020/12/10 11:37:55;;;;;;;84.53;35.55;;;0.80;99.90;;;;;;5036224;28;20218;-77
2020/12/10 11:40:22;;;;;;;97.93;35.30;;;0.70;99.90;;;;;;5034131;28;20227;-77
2020/12/10 11:42:50;;;;;;;95.47;40.20;;;0.60;99.90;;;;;;5034506;28;20206;-77
2020/12/10 11:45:18;;;;;;;106.90;39.75;;;0.70;99.90;;;;;;5034942;28;20257;-77
2020/12/10 11:47:46;;;;;;;104.22;40.22;;;0.70;99.90;;;;;;5035351;28;20230;-77
2020/12/10 11:50:18;;;;;;;94.75;35.90;;;0.70;99.90;;;;;;5034707;28;20294;-77
2020/12/10 11:52:46;;;;;;;103.78;37.25;;;0.80;99.90;;;;;;5034969;28;20275;-77
2020/12/10 11:55:12;;;;;;;97.63;36.28;;;0.80;99.90;;;;;;5034956;28;20692;-77
2020/12/10 11:57:38;;;;;;;92.45;33.63;;;0.80;99.90;;;;;;5034528;28;20206;-77
2020/12/10 12:00:08;;;;;;;89.22;36.65;;;0.80;99.90;;;;;;5034514;28;20223;-77
2020/12/10 12:02:34;;;;;;;102.97;35.58;;;0.70;99.90;;;;;;5034554;28;20253;-77
2020/12/10 12:05:01;;;;;;;104.28;39.13;;;0.70;99.90;;;;;;5035101;28;20294;-77
2020/12/10 12:07:27;;;;;;;93.75;35.47;;;0.70;99.90;;;;;;5035340;28;20223;-78
2020/12/10 12:09:53;;;;;;;101.20;36.83;;;0.80;99.90;;;;;;5035009;28;20239;-77
2020/12/10 12:12:20;;;;;;;106.55;41.80;;;0.80;99.90;;;;;;5034842;28;20578;-77
2020/12/10 12:14:46;;;;;;;91.05;32.58;;;0.70;99.90;;;;;;5035506;28;20199;-77
2020/12/10 12:17:16;;;;;;;74.65;32.58;;;0.70;99.90;;;;;;5034649;28;20204;-77
2020/12/10 12:19:43;;;;;;;103.00;39.13;;;0.70;99.90;;;;;;5035957;28;20242;-77
2020/12/10 12:22:09;;;;;;;79.88;31.15;;;0.80;99.90;;;;;;5044168;28;20215;-77
2020/12/10 12:24:35;;;;;;;81.80;31.70;;;0.70;99.90;;;;;;5042471;28;20208;-77
2020/12/10 12:27:04;;;;;;;69.85;28.42;;;0.60;99.90;;;;;;5039653;28;20263;-77
2020/12/10 12:29:31;;;;;;;65.22;29.08;;;0.70;99.90;;;;;;5038165;28;20228;-77
2020/12/10 12:31:57;;;;;;;65.22;28.25;;;0.70;99.90;;;;;;5038338;28;20550;-77
2020/12/10 12:34:24;;;;;;;69.95;28.27;;;0.60;99.90;;;;;;5037525;28;20208;-77
2020/12/10 12:36:51;;;;;;;61.33;25.52;;;0.70;99.90;;;;;;5037174;28;20207;-77